Time;durP1;ratioP1;P1;durP2;ratioP2;P2;SDS_P1;SDS_P2;PMS_P1;PMS_P2;Temp;Humidity;BMP_temperature;BMP_pressure;BME280_temperature;BME280_humidity;BME280_pressure;Samples;Min_cycle;Max_cycle;Signal;HPM_P1;HPM_P2
2022/12/14 00:01:26;;;;;;;55.07;22.53;;;-12.40;99.90;;;;;;5052951;28;20382;-78
2022/12/14 00:03:53;;;;;;;53.60;20.67;;;-12.40;99.90;;;;;;5052625;28;20406;-82
2022/12/14 00:06:21;;;;;;;57.77;21.63;;;-12.50;99.90;;;;;;5034882;28;20467;-81
2022/12/14 00:08:49;;;;;;;56.37;22.97;;;-12.50;99.90;;;;;;5034784;28;20025;-81
2022/12/14 00:11:14;;;;;;;58.23;22.70;;;-12.50;99.90;;;;;;5034736;28;20032;-81
2022/12/14 00:13:42;;;;;;;56.27;22.47;;;-12.60;99.90;;;;;;5052010;28;20406;-77
2022/12/14 00:16:13;;;;;;;58.67;21.67;;;-12.60;99.90;;;;;;5056180;28;20107;-77
2022/12/14 00:18:39;;;;;;;54.67;22.50;;;-12.60;99.90;;;;;;5056739;28;20020;-77
2022/12/14 00:21:10;;;;;;;59.37;22.60;;;-12.60;99.90;;;;;;5038737;28;20025;-82
2022/12/14 00:23:37;;;;;;;83.93;28.13;;;-12.60;99.90;;;;;;5038772;28;20049;-79
2022/12/14 00:26:17;;;;;;;60.37;26.37;;;-12.50;99.90;;;;;;5056899;28;20025;-82
2022/12/14 00:28:44;;;;;;;72.27;28.27;;;-12.50;99.90;;;;;;5076386;28;20086;-78
2022/12/14 00:31:10;;;;;;;75.83;28.37;;;-12.50;99.90;;;;;;5058430;28;20370;-77
2022/12/14 00:33:37;;;;;;;77.63;30.23;;;-12.50;99.90;;;;;;5058195;28;20385;-82
2022/12/14 00:36:04;;;;;;;83.63;32.20;;;-12.60;99.90;;;;;;5058277;28;20012;-82
2022/12/14 00:38:29;;;;;;;91.10;37.33;;;-12.60;99.90;;;;;;5071425;28;20028;-82
2022/12/14 00:40:56;;;;;;;110.27;39.80;;;-12.50;99.90;;;;;;5056031;28;20434;-77
2022/12/14 00:43:22;;;;;;;94.63;34.43;;;-12.50;99.90;;;;;;5038252;28;20051;-77
2022/12/14 00:45:48;;;;;;;77.67;32.73;;;-12.40;99.90;;;;;;5055984;28;20540;-78
2022/12/14 00:48:15;;;;;;;87.77;31.70;;;-12.40;99.90;;;;;;5038353;28;20013;-77
2022/12/14 00:50:41;;;;;;;78.10;29.73;;;-12.50;99.90;;;;;;5038067;28;20040;-80
2022/12/14 00:53:06;;;;;;;76.10;31.13;;;-12.50;99.90;;;;;;5055843;28;20029;-77
2022/12/14 00:55:43;;;;;;;184.23;54.70;;;-12.50;99.90;;;;;;5055955;28;20104;-77
2022/12/14 00:58:11;;;;;;;516.17;179.60;;;-12.50;99.90;;;;;;5055909;28;20036;-82
2022/12/14 01:00:37;;;;;;;309.70;101.00;;;-12.40;99.90;;;;;;5037760;28;20068;-77
2022/12/14 01:03:02;;;;;;;458.50;153.03;;;-12.30;99.90;;;;;;5055684;28;20056;-77
2022/12/14 01:05:28;;;;;;;133.90;45.53;;;-12.20;99.90;;;;;;5067371;28;20465;-81
2022/12/14 01:07:54;;;;;;;90.73;31.50;;;-12.20;99.90;;;;;;5041876;28;20060;-77
2022/12/14 01:10:20;;;;;;;87.10;31.47;;;-12.10;99.90;;;;;;5037772;28;20025;-82
2022/12/14 01:12:45;;;;;;;66.33;27.07;;;-12.10;99.90;;;;;;5055464;28;20070;-78
2022/12/14 01:15:11;;;;;;;72.13;26.43;;;-12.00;99.90;;;;;;5037612;28;20031;-82
2022/12/14 01:17:36;;;;;;;68.00;26.90;;;-12.00;99.90;;;;;;5037741;28;20031;-82
2022/12/14 01:20:03;;;;;;;72.70;29.43;;;-12.10;99.90;;;;;;5055478;28;20092;-82
2022/12/14 01:22:29;;;;;;;71.00;27.97;;;-12.10;99.90;;;;;;5055409;28;20353;-78
2022/12/14 01:24:54;;;;;;;55.43;25.13;;;-12.10;99.90;;;;;;5037185;28;20096;-82
2022/12/14 01:27:20;;;;;;;70.00;26.17;;;-12.20;99.90;;;;;;5042642;28;20025;-82
2022/12/14 01:29:46;;;;;;;71.30;26.07;;;-12.20;99.90;;;;;;5055336;28;20033;-77
2022/12/14 01:32:11;;;;;;;66.83;24.53;;;-12.20;99.90;;;;;;5037243;28;20520;-77
2022/12/14 01:34:37;;;;;;;63.30;24.93;;;-12.20;99.90;;;;;;5049641;28;20037;-82
2022/12/14 01:37:02;;;;;;;66.50;25.50;;;-12.20;99.90;;;;;;5055020;28;20013;-82
2022/12/14 01:39:28;;;;;;;66.37;24.07;;;-12.30;99.90;;;;;;5055093;28;20025;-82
2022/12/14 01:41:54;;;;;;;67.20;25.87;;;-12.30;99.90;;;;;;5042352;28;20071;-82
2022/12/14 01:44:19;;;;;;;49.77;21.30;;;-12.30;99.90;;;;;;5055102;28;20481;-81
2022/12/14 01:47:04;;;;;;;49.67;22.37;;;-12.40;99.90;;;;;;5037017;28;20501;-78
2022/12/14 01:49:48;;;;;;;55.07;22.30;;;-12.40;99.90;;;;;;5036891;28;20025;-82
2022/12/14 01:52:38;;;;;;;48.40;21.63;;;-12.50;99.90;;;;;;5037089;28;20043;-82
2022/12/14 01:55:09;;;;;;;51.30;20.80;;;-12.50;99.90;;;;;;5036876;28;20025;-77
2022/12/14 01:57:41;;;;;;;54.93;21.07;;;-12.50;99.90;;;;;;5036906;28;20433;-77
2022/12/14 02:00:09;;;;;;;51.80;22.23;;;-12.50;99.90;;;;;;5054741;28;20025;-77
2022/12/14 02:02:37;;;;;;;59.30;22.77;;;-12.50;99.90;;;;;;5050259;28;20271;-77
2022/12/14 02:05:05;;;;;;;50.93;22.63;;;-12.50;99.90;;;;;;5056450;28;20103;-77
2022/12/14 02:07:31;;;;;;;60.97;20.43;;;-12.60;99.90;;;;;;5074499;28;20036;-77
2022/12/14 02:10:01;;;;;;;48.30;20.80;;;-12.60;99.90;;;;;;5074321;28;20067;-75
2022/12/14 02:12:37;;;;;;;44.33;18.93;;;-12.60;99.90;;;;;;5074350;28;20024;-77
2022/12/14 02:15:04;;;;;;;44.50;20.53;;;-12.60;99.90;;;;;;5074487;28;20021;-75
2022/12/14 02:17:29;;;;;;;62.77;20.77;;;-12.60;99.90;;;;;;5074283;28;20077;-75
2022/12/14 02:19:56;;;;;;;49.97;21.53;;;-12.50;99.90;;;;;;5074348;28;20020;-77
2022/12/14 02:23:01;;;;;;;50.27;20.23;;;-12.50;99.90;;;;;;5056276;28;20086;-78
2022/12/14 02:26:07;;;;;;;50.27;19.17;;;-12.40;99.90;;;;;;5074133;28;20103;-82
2022/12/14 02:28:39;;;;;;;55.23;23.60;;;-12.20;99.90;;;;;;5016471;28;20026;-81
2022/12/14 02:31:32;;;;;;;55.03;21.10;;;-12.10;99.90;;;;;;5016419;28;20029;-82
2022/12/14 02:34:12;;;;;;;41.45;19.25;;;-12.10;99.90;;;;;;5034312;28;20034;-77
2022/12/14 02:36:56;;;;;;;50.27;21.93;;;-12.10;99.90;;;;;;5016033;28;20028;-83
2022/12/14 02:39:26;;;;;;;53.80;22.77;;;-12.00;99.90;;;;;;5034179;28;20597;-78
2022/12/14 02:41:55;;;;;;;51.53;20.83;;;-12.00;99.90;;;;;;5048514;28;20378;-77
2022/12/14 02:44:37;;;;;;;49.53;19.90;;;-12.00;99.90;;;;;;5035830;28;20084;-78
2022/12/14 02:47:13;;;;;;;44.97;19.80;;;-12.00;99.90;;;;;;5053543;28;20017;-78
2022/12/14 02:49:57;;;;;;;35.40;18.67;;;-12.00;99.90;;;;;;5036085;28;20079;-77
2022/12/14 02:52:35;;;;;;;45.73;19.77;;;-12.00;99.90;;;;;;5035686;28;20045;-81
2022/12/14 02:55:10;;;;;;;45.70;19.83;;;-12.00;99.90;;;;;;5035992;28;20436;-77
2022/12/14 02:57:38;;;;;;;44.97;19.80;;;-12.00;99.90;;;;;;5035776;28;20091;-77
2022/12/14 03:00:05;;;;;;;51.20;23.30;;;-12.00;99.90;;;;;;5053700;28;20029;-81
2022/12/14 03:02:35;;;;;;;56.80;24.03;;;-12.00;99.90;;;;;;5035690;28;20430;-78
2022/12/14 03:05:01;;;;;;;54.87;21.87;;;-11.90;99.90;;;;;;5035574;28;20111;-77
2022/12/14 03:07:41;;;;;;;51.67;23.27;;;-11.80;99.90;;;;;;5035593;28;20056;-77
2022/12/14 03:10:20;;;;;;;51.40;22.50;;;-11.80;99.90;;;;;;5035667;28;20029;-77
2022/12/14 03:12:54;;;;;;;48.47;21.77;;;-11.80;99.90;;;;;;5053314;28;20124;-77
2022/12/14 03:15:22;;;;;;;41.17;19.23;;;-11.80;99.90;;;;;;5035516;28;20123;-81
2022/12/14 03:17:51;;;;;;;54.70;21.23;;;-11.80;99.90;;;;;;5035470;28;20108;-77
2022/12/14 03:20:23;;;;;;;45.73;20.53;;;-11.80;99.90;;;;;;5053271;28;20047;-82
2022/12/14 03:23:03;;;;;;;43.97;19.97;;;-11.80;99.90;;;;;;5035461;28;20017;-81
2022/12/14 03:25:34;;;;;;;46.87;22.10;;;-11.80;99.90;;;;;;5053394;28;20025;-77
2022/12/14 03:28:10;;;;;;;46.93;20.97;;;-11.70;99.90;;;;;;5070772;28;20028;-77
2022/12/14 03:30:38;;;;;;;46.23;21.27;;;-11.80;99.90;;;;;;5072017;28;20074;-81
2022/12/14 03:33:10;;;;;;;46.33;20.67;;;-11.70;99.90;;;;;;5072934;28;20033;-82
2022/12/14 03:35:45;;;;;;;50.27;21.00;;;-11.70;99.90;;;;;;5073357;28;20024;-78
2022/12/14 03:38:22;;;;;;;44.57;18.63;;;-11.70;99.90;;;;;;5055191;28;20024;-77
2022/12/14 03:41:08;;;;;;;40.40;18.57;;;-11.60;99.90;;;;;;5066979;28;20025;-77
2022/12/14 03:43:44;;;;;;;47.80;20.77;;;-11.60;99.90;;;;;;5034981;28;20040;-83
2022/12/14 03:46:20;;;;;;;45.90;19.80;;;-11.60;99.90;;;;;;5053095;28;20035;-77
2022/12/14 03:48:51;;;;;;;43.23;19.27;;;-11.60;99.90;;;;;;5054497;28;20070;-77
2022/12/14 03:51:19;;;;;;;38.10;17.33;;;-11.60;99.90;;;;;;5039335;28;20024;-82
2022/12/14 03:54:06;;;;;;;42.53;19.03;;;-11.60;99.90;;;;;;5057089;28;20406;-77
2022/12/14 03:56:49;;;;;;;49.57;20.57;;;-11.60;99.90;;;;;;5039042;28;20021;-77
2022/12/14 03:59:20;;;;;;;31.27;16.67;;;-11.50;99.90;;;;;;5039276;28;20078;-81
2022/12/14 04:01:48;;;;;;;52.50;20.17;;;-11.50;99.90;;;;;;5056188;28;20021;-82
2022/12/14 04:04:32;;;;;;;45.07;19.77;;;-11.50;99.90;;;;;;5038962;28;20021;-82
2022/12/14 04:07:13;;;;;;;32.60;16.70;;;-11.40;99.90;;;;;;5056728;28;20021;-81
2022/12/14 04:09:58;;;;;;;39.60;17.27;;;-11.30;99.90;;;;;;5056966;28;20017;-76
2022/12/14 04:21:01;;;;;;;45.30;18.43;;;-11.20;99.90;;;;;;5056773;28;20194;-82
2022/12/14 04:26:22;;;;;;;41.27;17.27;;;-11.20;99.90;;;;;;5060251;28;20159;-77
2022/12/14 04:31:47;;;;;;;43.08;17.92;;;-11.10;99.90;;;;;;5076751;28;20061;-82
2022/12/14 04:34:14;;;;;;;41.83;17.90;;;-11.00;99.90;;;;;;5076263;28;20417;-83
2022/12/14 04:36:52;;;;;;;34.03;16.50;;;-11.00;99.90;;;;;;5076231;28;20024;-77
2022/12/14 04:39:25;;;;;;;43.60;17.50;;;-10.90;99.90;;;;;;5076324;28;20028;-77
2022/12/14 04:41:54;;;;;;;31.77;15.40;;;-10.90;99.90;;;;;;5060894;28;20024;-76
2022/12/14 04:44:43;;;;;;;38.37;17.70;;;-10.80;99.90;;;;;;5038251;28;20045;-82
2022/12/14 04:47:11;;;;;;;33.43;15.77;;;-10.80;99.90;;;;;;5038277;28;20028;-77
2022/12/14 04:50:07;;;;;;;44.20;16.90;;;-10.70;99.90;;;;;;5055931;28;20036;-77
2022/12/14 04:52:44;;;;;;;36.97;16.73;;;-10.70;99.90;;;;;;5038012;28;20071;-81
2022/12/14 04:55:09;;;;;;;33.63;16.13;;;-10.60;99.90;;;;;;5056055;28;20033;-81
2022/12/14 04:57:44;;;;;;;36.07;17.13;;;-10.60;99.90;;;;;;5038081;28;20386;-77
2022/12/14 05:00:10;;;;;;;40.70;16.13;;;-10.60;99.90;;;;;;5037387;28;20029;-77
2022/12/14 05:02:58;;;;;;;32.40;15.50;;;-10.50;99.90;;;;;;5055591;28;20017;-81
2022/12/14 05:05:34;;;;;;;39.40;17.07;;;-10.50;99.90;;;;;;5038048;28;20017;-78
2022/12/14 05:08:06;;;;;;;33.47;15.53;;;-10.40;99.90;;;;;;5037773;28;20481;-81
2022/12/14 05:11:09;;;;;;;38.60;18.00;;;-10.40;99.90;;;;;;5037664;28;20113;-81
2022/12/14 05:13:43;;;;;;;42.33;16.10;;;-10.40;99.90;;;;;;5055513;28;20072;-82
2022/12/14 05:16:10;;;;;;;30.13;16.17;;;-10.40;99.90;;;;;;5037674;28;20032;-82
2022/12/14 05:18:36;;;;;;;34.10;16.90;;;-10.30;99.90;;;;;;5072161;28;20442;-77
2022/12/14 05:21:01;;;;;;;35.50;18.73;;;-10.30;99.90;;;;;;5075477;28;20059;-77
2022/12/14 05:23:27;;;;;;;47.73;19.13;;;-10.30;99.90;;;;;;5057316;28;20063;-75
2022/12/14 05:25:53;;;;;;;35.60;15.23;;;-10.30;99.90;;;;;;5074575;28;20430;-77
2022/12/14 05:28:18;;;;;;;39.03;16.57;;;-10.30;99.90;;;;;;5055268;28;20525;-81
2022/12/14 05:30:44;;;;;;;40.00;16.43;;;-10.30;99.90;;;;;;5054206;28;20029;-76
2022/12/14 05:33:17;;;;;;;35.07;16.27;;;-10.20;99.90;;;;;;5055114;28;20036;-82
2022/12/14 05:35:43;;;;;;;43.50;18.87;;;-10.20;99.90;;;;;;5055281;28;20017;-76
2022/12/14 05:38:08;;;;;;;51.17;21.70;;;-10.20;99.90;;;;;;5053273;28;20031;-77
2022/12/14 05:40:34;;;;;;;37.50;19.07;;;-10.10;99.90;;;;;;5037180;28;20029;-78
2022/12/14 05:43:08;;;;;;;43.33;19.10;;;-10.10;99.90;;;;;;5036801;28;20063;-76
2022/12/14 05:45:33;;;;;;;45.17;20.43;;;-10.00;99.90;;;;;;5055225;28;20352;-81
2022/12/14 05:47:59;;;;;;;50.07;21.10;;;-10.00;99.90;;;;;;5037081;28;20036;-76
2022/12/14 05:50:25;;;;;;;41.90;17.97;;;-9.90;99.90;;;;;;5055030;28;20439;-81
2022/12/14 05:52:51;;;;;;;37.63;17.00;;;-9.90;99.90;;;;;;5054721;28;20045;-77
2022/12/14 05:55:17;;;;;;;47.83;19.23;;;-9.80;99.90;;;;;;5054763;28;20020;-77
2022/12/14 05:57:42;;;;;;;45.10;19.63;;;-9.80;99.90;;;;;;5037198;28;20381;-81
2022/12/14 06:00:09;;;;;;;50.13;22.33;;;-9.70;99.90;;;;;;5054425;28;20517;-76
2022/12/14 06:02:35;;;;;;;45.33;19.33;;;-9.70;99.90;;;;;;5050491;28;20024;-81
2022/12/14 06:05:00;;;;;;;38.37;18.50;;;-9.70;99.90;;;;;;5062464;28;20021;-81
2022/12/14 06:07:26;;;;;;;45.13;18.47;;;-9.60;99.90;;;;;;5056053;28;20033;-77
2022/12/14 06:09:51;;;;;;;41.53;20.10;;;-9.60;99.90;;;;;;5044693;28;20074;-77
2022/12/14 06:12:17;;;;;;;47.07;20.80;;;-9.50;99.90;;;;;;5049297;28;20041;-81
2022/12/14 06:14:42;;;;;;;44.77;22.53;;;-9.50;99.90;;;;;;5053749;28;20017;-81
2022/12/14 06:17:08;;;;;;;77.57;28.10;;;-9.50;99.90;;;;;;5052307;28;20079;-82
2022/12/14 06:19:34;;;;;;;77.37;30.60;;;-9.50;99.90;;;;;;5052077;28;20021;-81
2022/12/14 06:22:00;;;;;;;54.33;25.80;;;-9.50;99.90;;;;;;5052525;28;20473;-81
2022/12/14 06:24:25;;;;;;;61.23;25.00;;;-9.50;99.90;;;;;;5054117;28;20060;-81
2022/12/14 06:26:51;;;;;;;61.00;25.80;;;-9.50;99.90;;;;;;5061609;28;20107;-81
2022/12/14 06:29:18;;;;;;;58.60;23.63;;;-9.50;99.90;;;;;;5073475;28;20021;-82
2022/12/14 06:31:44;;;;;;;64.40;29.13;;;-9.50;99.90;;;;;;5037210;28;20040;-76
2022/12/14 06:34:10;;;;;;;64.80;27.97;;;-9.40;99.90;;;;;;5055944;28;20082;-81
2022/12/14 06:36:39;;;;;;;57.40;25.53;;;-9.40;99.90;;;;;;5056043;28;20016;-81
2022/12/14 06:39:11;;;;;;;53.03;20.70;;;-9.30;99.90;;;;;;5039861;28;20021;-78
2022/12/14 06:41:36;;;;;;;53.65;20.75;;;-9.30;99.90;;;;;;5033633;28;20032;-82
2022/12/14 06:44:07;;;;;;;56.67;27.53;;;-9.30;99.90;;;;;;5051389;28;20053;-78
2022/12/14 06:46:33;;;;;;;59.00;24.57;;;-9.30;99.90;;;;;;5034385;28;20025;-78
2022/12/14 06:48:58;;;;;;;62.67;27.70;;;-9.30;99.90;;;;;;5034661;28;20543;-77
2022/12/14 06:51:24;;;;;;;61.93;29.20;;;-9.30;99.90;;;;;;5052591;28;20029;-78
2022/12/14 06:53:51;;;;;;;65.90;28.17;;;-9.20;99.90;;;;;;5035002;28;20033;-77
2022/12/14 06:56:18;;;;;;;67.43;28.40;;;-9.20;99.90;;;;;;5035519;28;20017;-82
2022/12/14 06:58:44;;;;;;;54.40;23.20;;;-9.10;99.90;;;;;;5035236;28;20021;-77
2022/12/14 07:01:13;;;;;;;46.63;23.90;;;-9.10;99.90;;;;;;5035129;28;20025;-77
2022/12/14 07:03:39;;;;;;;54.07;23.50;;;-9.10;99.90;;;;;;5034355;28;20474;-78
2022/12/14 07:06:05;;;;;;;51.47;21.80;;;-9.00;99.90;;;;;;5035084;28;20017;-77
2022/12/14 07:08:34;;;;;;;50.83;21.83;;;-9.00;99.90;;;;;;5040191;28;20025;-76
2022/12/14 07:11:07;;;;;;;46.73;19.97;;;-8.90;99.90;;;;;;5072172;28;20043;-77
2022/12/14 07:13:34;;;;;;;50.97;24.57;;;-8.80;99.90;;;;;;5053667;28;20040;-82
2022/12/14 07:16:00;;;;;;;56.00;25.27;;;-8.80;99.90;;;;;;5053217;28;20087;-81
2022/12/14 07:18:27;;;;;;;62.77;28.03;;;-8.70;99.90;;;;;;4996704;28;20073;-77
2022/12/14 07:21:01;;;;;;;85.10;39.30;;;-8.70;99.90;;;;;;5034385;28;20386;-81
2022/12/14 07:23:30;;;;;;;79.57;35.57;;;-8.60;99.90;;;;;;5034851;28;20079;-82
2022/12/14 07:26:07;;;;;;;141.97;64.87;;;-8.50;99.90;;;;;;5054697;28;20021;-77
2022/12/14 07:28:34;;;;;;;254.20;105.93;;;-8.50;99.90;;;;;;5071643;28;20026;-77
2022/12/14 07:31:00;;;;;;;215.73;84.87;;;-8.40;99.90;;;;;;5055232;28;20051;-77
2022/12/14 07:33:27;;;;;;;156.20;64.73;;;-8.40;99.90;;;;;;5055041;28;20490;-82
2022/12/14 07:36:01;;;;;;;128.17;50.27;;;-8.40;99.90;;;;;;5072865;28;20099;-81
2022/12/14 07:38:26;;;;;;;67.43;27.60;;;-8.30;99.90;;;;;;5060066;28;20025;-82
2022/12/14 07:40:52;;;;;;;69.67;30.27;;;-8.30;99.90;;;;;;5048331;28;20368;-80
2022/12/14 07:43:17;;;;;;;183.53;72.67;;;-8.40;99.90;;;;;;5052281;28;20126;-82
2022/12/14 07:45:44;;;;;;;173.97;71.20;;;-8.30;99.90;;;;;;5052765;28;20132;-79
2022/12/14 07:48:10;;;;;;;144.57;63.13;;;-8.30;99.90;;;;;;5052656;28;20108;-83
2022/12/14 07:50:35;;;;;;;123.57;53.13;;;-8.20;99.90;;;;;;5034746;28;20025;-78
2022/12/14 07:53:01;;;;;;;130.83;56.80;;;-8.20;99.90;;;;;;5034761;28;20044;-82
2022/12/14 07:55:28;;;;;;;108.17;48.50;;;-8.20;99.90;;;;;;5052520;28;20025;-81
2022/12/14 07:57:54;;;;;;;131.20;55.90;;;-8.10;99.90;;;;;;5062214;28;20025;-74
2022/12/14 08:00:20;;;;;;;103.23;46.77;;;-8.10;99.90;;;;;;5034201;28;20025;-74
2022/12/14 08:02:46;;;;;;;92.17;40.87;;;-8.10;99.90;;;;;;5051613;28;20550;-79
2022/12/14 08:05:11;;;;;;;113.73;44.93;;;-8.10;99.90;;;;;;5050270;28;20039;-80
2022/12/14 08:07:37;;;;;;;100.17;47.90;;;-8.00;99.90;;;;;;5051927;28;20025;-76
2022/12/14 08:10:03;;;;;;;88.43;34.70;;;-8.00;99.90;;;;;;5034645;28;20040;-77
2022/12/14 08:12:28;;;;;;;84.40;38.13;;;-8.00;99.90;;;;;;5034300;28;20355;-83
2022/12/14 08:14:54;;;;;;;73.77;33.77;;;-8.00;99.90;;;;;;5033995;28;20056;-80
2022/12/14 08:17:19;;;;;;;69.07;36.20;;;-8.00;99.90;;;;;;5033737;28;20090;-76
2022/12/14 08:19:45;;;;;;;71.43;29.67;;;-7.90;99.90;;;;;;5022270;28;20956;-75
2022/12/14 08:22:11;;;;;;;85.50;35.53;;;-7.80;99.90;;;;;;5052191;28;20363;-79
2022/12/14 08:24:36;;;;;;;73.43;30.33;;;-7.70;99.90;;;;;;5052379;28;20382;-78
2022/12/14 08:27:02;;;;;;;118.70;47.37;;;-7.70;99.90;;;;;;5048602;28;20163;-76
2022/12/14 08:29:27;;;;;;;71.90;30.97;;;-7.70;99.90;;;;;;5049092;28;20021;-76
2022/12/14 08:31:56;;;;;;;115.50;43.70;;;-7.70;99.90;;;;;;4999613;28;20044;-74
2022/12/14 08:34:22;;;;;;;67.47;29.00;;;-7.60;99.90;;;;;;5034067;28;20025;-73
2022/12/14 08:36:48;;;;;;;98.10;42.90;;;-7.50;99.90;;;;;;5054720;28;20102;-76
2022/12/14 08:39:14;;;;;;;68.65;31.27;;;-7.40;99.90;;;;;;5037434;28;20056;-76
2022/12/14 08:41:40;;;;;;;84.20;34.37;;;-7.30;99.90;;;;;;5044774;28;20016;-81
2022/12/14 08:44:06;;;;;;;87.43;39.30;;;-7.20;99.90;;;;;;5042824;28;20052;-81
2022/12/14 08:46:33;;;;;;;158.63;62.40;;;-7.10;99.90;;;;;;5063178;28;20065;-81
2022/12/14 08:48:59;;;;;;;88.13;42.00;;;-7.00;99.90;;;;;;5041006;28;20052;-77
2022/12/14 08:51:26;;;;;;;97.70;44.75;;;-6.80;99.90;;;;;;5046689;28;20504;-84
2022/12/14 08:53:53;;;;;;;135.30;57.70;;;-6.70;99.90;;;;;;5041187;28;20035;-77
2022/12/14 08:56:22;;;;;;;107.07;44.67;;;-6.60;99.90;;;;;;5055812;28;20486;-82
2022/12/14 08:58:48;;;;;;;87.63;39.40;;;-6.50;99.90;;;;;;5056515;28;20013;-81
2022/12/14 09:01:18;;;;;;;90.97;40.92;;;-6.50;99.90;;;;;;5062772;28;20037;-78
2022/12/14 09:03:45;;;;;;;113.05;50.30;;;-6.50;99.90;;;;;;5060569;28;20048;-82
2022/12/14 09:06:14;;;;;;;97.63;42.50;;;-6.60;99.90;;;;;;5044866;28;20444;-82
2022/12/14 09:08:40;;;;;;;75.43;29.77;;;-6.60;99.90;;;;;;5042157;28;20025;-80
2022/12/14 09:11:09;;;;;;;94.70;42.20;;;-6.60;99.90;;;;;;5045799;28;20030;-81
2022/12/14 09:13:34;;;;;;;62.83;27.52;;;-6.60;99.90;;;;;;5063138;28;20128;-76
2022/12/14 09:16:04;;;;;;;62.10;29.27;;;-6.70;99.90;;;;;;5065291;28;20056;-77
2022/12/14 09:18:29;;;;;;;71.00;33.78;;;-6.80;99.90;;;;;;5041514;28;20086;-77
2022/12/14 09:20:55;;;;;;;78.27;33.03;;;-6.90;99.90;;;;;;5034982;28;20474;-77
2022/12/14 09:23:25;;;;;;;76.55;33.42;;;-6.90;99.90;;;;;;5057477;28;20033;-77
2022/12/14 09:26:01;;;;;;;59.20;28.60;;;-6.90;99.90;;;;;;5052110;28;20430;-77
2022/12/14 09:28:28;;;;;;;61.35;26.75;;;-7.00;99.90;;;;;;5054699;28;20025;-77
2022/12/14 09:30:56;;;;;;;64.20;27.83;;;-7.10;99.90;;;;;;5038095;28;20029;-77
2022/12/14 09:33:22;;;;;;;60.20;27.43;;;-7.10;99.90;;;;;;5036681;28;20041;-81
2022/12/14 09:35:48;;;;;;;54.70;25.13;;;-7.10;99.90;;;;;;5036935;28;20025;-81
2022/12/14 09:38:14;;;;;;;50.00;25.50;;;-7.00;99.90;;;;;;5036998;28;20077;-77
2022/12/14 09:40:45;;;;;;;48.37;22.17;;;-7.00;99.90;;;;;;5054901;28;20483;-82
2022/12/14 09:43:41;;;;;;;59.40;26.07;;;-7.00;99.90;;;;;;5054083;28;20080;-77
2022/12/14 09:46:35;;;;;;;55.07;25.13;;;-6.70;99.90;;;;;;5053745;28;20029;-77
2022/12/14 09:49:02;;;;;;;52.17;21.02;;;-6.60;99.90;;;;;;5034925;28;20446;-82
2022/12/14 09:51:35;;;;;;;57.20;24.58;;;-6.40;99.90;;;;;;5036736;28;20386;-81
2022/12/14 09:54:05;;;;;;;58.55;25.92;;;-6.30;99.90;;;;;;5054413;28;20033;-82
2022/12/14 09:56:33;;;;;;;77.10;32.45;;;-6.20;99.90;;;;;;5067215;28;20111;-77
2022/12/14 09:59:00;;;;;;;78.00;34.10;;;-6.10;99.90;;;;;;5023124;28;20363;-77
2022/12/14 10:01:35;;;;;;;69.13;30.67;;;-5.90;99.90;;;;;;5036516;28;20023;-77
2022/12/14 10:04:22;;;;;;;65.75;32.75;;;-5.80;99.90;;;;;;5054288;28;20497;-81
2022/12/14 10:06:51;;;;;;;71.38;34.97;;;-5.60;99.90;;;;;;5036547;28;20425;-81
2022/12/14 10:09:34;;;;;;;96.75;41.45;;;-5.50;99.90;;;;;;5036368;28;20029;-77
2022/12/14 10:12:15;;;;;;;108.50;46.85;;;-5.60;99.90;;;;;;5035835;28;20017;-78
2022/12/14 10:15:04;;;;;;;80.55;36.47;;;-5.60;99.90;;;;;;5054136;28;20041;-82
2022/12/14 10:18:00;;;;;;;67.05;30.65;;;-5.60;99.90;;;;;;5036152;28;20036;-81
2022/12/14 10:20:47;;;;;;;69.53;30.55;;;-5.40;99.90;;;;;;5053205;28;20092;-77
2022/12/14 10:23:21;;;;;;;63.72;28.80;;;-5.40;99.90;;;;;;5036014;28;20445;-81
2022/12/14 10:25:50;;;;;;;66.05;27.52;;;-5.30;99.90;;;;;;5036074;28;20029;-77
2022/12/14 10:28:19;;;;;;;47.22;23.05;;;-5.30;99.90;;;;;;5053533;28;20036;-77
2022/12/14 10:30:47;;;;;;;58.15;25.40;;;-5.30;99.90;;;;;;5053633;28;20021;-77
2022/12/14 10:33:29;;;;;;;55.25;25.13;;;-5.30;99.90;;;;;;5053581;28;20043;-81
2022/12/14 10:36:03;;;;;;;64.35;29.38;;;-5.40;99.90;;;;;;5035901;28;20387;-77
2022/12/14 10:38:56;;;;;;;58.70;29.60;;;-5.40;99.90;;;;;;5035844;28;20021;-79
2022/12/14 10:41:27;;;;;;;65.57;27.25;;;-5.40;99.90;;;;;;5036399;28;20017;-81
2022/12/14 10:44:24;;;;;;;58.92;26.77;;;-5.40;99.90;;;;;;5053250;28;20049;-81
2022/12/14 10:47:01;;;;;;;56.20;28.25;;;-5.30;99.90;;;;;;5053510;28;20033;-81
2022/12/14 10:49:40;;;;;;;63.40;28.55;;;-5.20;99.90;;;;;;5047593;28;20025;-82
2022/12/14 10:52:17;;;;;;;61.03;28.77;;;-5.20;99.90;;;;;;5053283;28;20479;-78
2022/12/14 10:54:46;;;;;;;63.38;28.10;;;-5.20;99.90;;;;;;5051797;28;20470;-78
2022/12/14 10:57:25;;;;;;;68.60;29.70;;;-5.30;99.90;;;;;;5034421;28;20028;-83
2022/12/14 10:59:54;;;;;;;59.58;28.15;;;-5.20;99.90;;;;;;5052712;28;20478;-85
2022/12/14 11:02:42;;;;;;;58.63;27.13;;;-5.20;99.90;;;;;;5052639;28;20087;-78
2022/12/14 11:05:38;;;;;;;61.55;28.23;;;-5.10;99.90;;;;;;5053285;28;20025;-78
2022/12/14 11:08:07;;;;;;;56.10;25.08;;;-5.00;99.90;;;;;;5033915;28;20044;-82
2022/12/14 11:10:35;;;;;;;65.88;27.13;;;-5.00;99.90;;;;;;5032888;28;20051;-77
2022/12/14 11:13:11;;;;;;;57.30;26.48;;;-5.00;99.90;;;;;;5050963;28;20044;-77
2022/12/14 11:15:40;;;;;;;48.22;21.42;;;-4.90;98.90;;;;;;5051552;28;20120;-77
2022/12/14 11:18:25;;;;;;;56.47;22.08;;;-5.00;98.80;;;;;;5051868;28;20448;-77
2022/12/14 11:20:57;;;;;;;44.15;20.73;;;-4.90;98.10;;;;;;5034042;28;20032;-78
2022/12/14 11:23:26;;;;;;;56.50;24.92;;;-4.80;97.70;;;;;;5033942;28;20020;-78
2022/12/14 11:26:01;;;;;;;48.15;22.05;;;-4.90;97.40;;;;;;5053753;28;20013;-81
2022/12/14 11:28:36;;;;;;;54.05;23.88;;;-5.00;97.10;;;;;;5071240;28;20087;-81
2022/12/14 11:31:19;;;;;;;54.15;25.30;;;-5.20;97.10;;;;;;5071315;28;20028;-82
2022/12/14 11:33:50;;;;;;;50.15;24.25;;;-5.40;98.90;;;;;;5071611;28;20025;-82
2022/12/14 11:36:22;;;;;;;58.83;26.08;;;-5.60;99.90;;;;;;5054369;28;20116;-81
2022/12/14 11:39:02;;;;;;;54.22;25.75;;;-5.70;99.90;;;;;;5072305;28;20066;-77
2022/12/14 11:41:35;;;;;;;59.13;25.95;;;-5.70;99.90;;;;;;5058911;28;20040;-81
2022/12/14 11:44:15;;;;;;;50.22;24.48;;;-5.80;99.90;;;;;;5053114;28;20049;-78
2022/12/14 11:46:51;;;;;;;52.78;22.85;;;-5.90;99.90;;;;;;5051492;28;20146;-83
2022/12/14 11:49:24;;;;;;;55.88;27.13;;;-6.00;99.90;;;;;;5072691;28;20048;-83
2022/12/14 11:51:58;;;;;;;58.05;28.08;;;-5.90;99.90;;;;;;5072984;28;20107;-82
2022/12/14 11:54:25;;;;;;;61.08;28.38;;;-6.00;99.90;;;;;;5054888;28;20370;-82
2022/12/14 11:56:54;;;;;;;71.03;31.30;;;-5.90;99.90;;;;;;5054846;28;20029;-81
2022/12/14 11:59:20;;;;;;;57.83;27.90;;;-5.80;99.90;;;;;;5054766;28;20032;-77
2022/12/14 12:01:46;;;;;;;65.88;29.63;;;-5.80;99.90;;;;;;5069170;28;20367;-82
2022/12/14 12:04:15;;;;;;;73.00;32.80;;;-5.80;99.90;;;;;;5052741;28;20067;-82
2022/12/14 12:06:41;;;;;;;78.47;33.83;;;-5.80;99.90;;;;;;5052255;28;20067;-79
2022/12/14 12:09:29;;;;;;;75.15;33.17;;;-5.90;99.90;;;;;;5035051;28;20028;-78
2022/12/14 12:11:55;;;;;;;82.32;36.92;;;-6.00;99.90;;;;;;5038797;28;20021;-78
2022/12/14 12:14:35;;;;;;;73.13;35.55;;;-6.00;99.90;;;;;;5038772;28;20131;-83
2022/12/14 12:17:01;;;;;;;82.95;32.92;;;-6.00;99.90;;;;;;5038871;28;20021;-83
2022/12/14 12:19:36;;;;;;;83.10;33.80;;;-6.00;99.90;;;;;;5056411;28;20028;-81
2022/12/14 12:22:04;;;;;;;72.30;34.10;;;-6.00;99.90;;;;;;5056540;28;20025;-78
2022/12/14 12:24:35;;;;;;;66.28;28.92;;;-6.00;99.90;;;;;;5038542;28;20116;-82
2022/12/14 12:27:10;;;;;;;71.78;29.20;;;-6.10;99.90;;;;;;5068913;28;20031;-78
2022/12/14 12:29:43;;;;;;;71.30;32.85;;;-6.10;99.90;;;;;;5053225;28;20032;-82
2022/12/14 12:32:20;;;;;;;;;;;-6.10;99.90;;;;;;5056617;28;20167;-82
2022/12/14 12:35:14;;;;;;;68.75;30.63;;;-6.10;99.90;;;;;;5038619;28;19909;-82
2022/12/14 12:37:46;;;;;;;73.70;30.60;;;-6.20;99.90;;;;;;5038324;28;20053;-83
2022/12/14 12:40:26;;;;;;;77.43;33.03;;;-6.20;99.90;;;;;;5038097;28;20020;-82
2022/12/14 12:42:58;;;;;;;63.53;27.83;;;-6.20;99.90;;;;;;5034938;28;20045;-77
2022/12/14 12:45:46;;;;;;;72.70;29.73;;;-6.30;99.90;;;;;;5034978;28;20025;-78
2022/12/14 12:48:25;;;;;;;84.68;33.92;;;-6.30;99.90;;;;;;5026527;28;20037;-83
2022/12/14 12:50:56;;;;;;;86.28;34.65;;;-6.40;99.90;;;;;;5036037;28;20079;-77
2022/12/14 12:53:30;;;;;;;93.13;39.63;;;-6.50;99.90;;;;;;5034803;28;20040;-82
2022/12/14 12:56:17;;;;;;;83.43;35.28;;;-6.60;99.90;;;;;;5036130;28;20029;-83
2022/12/14 12:58:45;;;;;;;92.55;40.00;;;-6.60;99.90;;;;;;5034730;28;20029;-81